sensor_id;sensor_type;location;lat;lon;timestamp;P1;durP1;ratioP1;P2;durP2;ratioP2
46607;SDS011;32330;51.936;7.184;2023-02-15T04:48:51;29.63;;;20.98;;
46607;SDS011;32330;51.936;7.184;2023-02-15T04:51:19;25.58;;;20.42;;
46607;SDS011;32330;51.936;7.184;2023-02-15T04:53:46;30.00;;;20.20;;
46607;SDS011;32330;51.936;7.184;2023-02-15T04:56:13;29.02;;;20.45;;
46607;SDS011;32330;51.936;7.184;2023-02-15T04:58:40;28.60;;;20.88;;
46607;SDS011;32330;51.936;7.184;2023-02-15T05:01:07;25.83;;;19.35;;
46607;SDS011;32330;51.936;7.184;2023-02-15T05:03:34;30.52;;;20.13;;
46607;SDS011;32330;51.936;7.184;2023-02-15T05:06:03;27.27;;;20.27;;
46607;SDS011;32330;51.936;7.184;2023-02-15T05:08:30;28.23;;;20.33;;
46607;SDS011;32330;51.936;7.184;2023-02-15T05:10:57;31.55;;;19.95;;
46607;SDS011;32330;51.936;7.184;2023-02-15T05:13:24;26.10;;;19.67;;
46607;SDS011;32330;51.936;7.184;2023-02-15T05:15:52;28.83;;;20.73;;
46607;SDS011;32330;51.936;7.184;2023-02-15T05:18:20;25.60;;;19.50;;
46607;SDS011;32330;51.936;7.184;2023-02-15T05:20:48;29.52;;;21.13;;
46607;SDS011;32330;51.936;7.184;2023-02-15T05:23:16;29.05;;;21.75;;
46607;SDS011;32330;51.936;7.184;2023-02-15T05:25:46;28.75;;;21.27;;
46607;SDS011;32330;51.936;7.184;2023-02-15T05:28:31;27.48;;;20.15;;
46607;SDS011;32330;51.936;7.184;2023-02-15T05:31:00;28.55;;;21.58;;
46607;SDS011;32330;51.936;7.184;2023-02-15T05:33:30;29.75;;;21.73;;
46607;SDS011;32330;51.936;7.184;2023-02-15T05:35:57;29.17;;;21.23;;
46607;SDS011;32330;51.936;7.184;2023-02-15T05:38:25;29.08;;;20.50;;
46607;SDS011;32330;51.936;7.184;2023-02-15T05:40:52;27.90;;;21.63;;
46607;SDS011;32330;51.936;7.184;2023-02-15T05:43:19;27.20;;;20.95;;
46607;SDS011;32330;51.936;7.184;2023-02-15T05:45:47;29.33;;;21.77;;
46607;SDS011;32330;51.936;7.184;2023-02-15T05:48:15;29.48;;;20.88;;
46607;SDS011;32330;51.936;7.184;2023-02-15T05:50:43;29.70;;;22.05;;
46607;SDS011;32330;51.936;7.184;2023-02-15T05:53:10;29.33;;;21.77;;
46607;SDS011;32330;51.936;7.184;2023-02-15T05:55:39;29.63;;;22.05;;
46607;SDS011;32330;51.936;7.184;2023-02-15T05:58:06;31.13;;;22.63;;
46607;SDS011;32330;51.936;7.184;2023-02-15T06:00:34;31.38;;;21.88;;
46607;SDS011;32330;51.936;7.184;2023-02-15T06:03:01;29.77;;;21.63;;
46607;SDS011;32330;51.936;7.184;2023-02-15T06:05:28;29.60;;;22.67;;
46607;SDS011;32330;51.936;7.184;2023-02-15T06:07:55;32.42;;;22.05;;
46607;SDS011;32330;51.936;7.184;2023-02-15T06:10:22;33.05;;;22.23;;
46607;SDS011;32330;51.936;7.184;2023-02-15T06:12:50;32.20;;;23.48;;
46607;SDS011;32330;51.936;7.184;2023-02-15T06:15:17;31.50;;;22.35;;
46607;SDS011;32330;51.936;7.184;2023-02-15T06:17:44;30.65;;;23.05;;
46607;SDS011;32330;51.936;7.184;2023-02-15T06:20:11;30.00;;;23.30;;
46607;SDS011;32330;51.936;7.184;2023-02-15T06:22:38;32.35;;;23.00;;
46607;SDS011;32330;51.936;7.184;2023-02-15T06:25:05;30.50;;;22.25;;
46607;SDS011;32330;51.936;7.184;2023-02-15T06:27:35;31.10;;;22.75;;
46607;SDS011;32330;51.936;7.184;2023-02-15T06:30:04;31.73;;;22.65;;
46607;SDS011;32330;51.936;7.184;2023-02-15T06:32:31;33.13;;;22.67;;
46607;SDS011;32330;51.936;7.184;2023-02-15T06:34:58;31.63;;;22.50;;
46607;SDS011;32330;51.936;7.184;2023-02-15T06:37:25;32.38;;;22.58;;
46607;SDS011;32330;51.936;7.184;2023-02-15T06:39:52;30.95;;;23.65;;
46607;SDS011;32330;51.936;7.184;2023-02-15T06:42:21;33.55;;;23.05;;
46607;SDS011;32330;51.936;7.184;2023-02-15T06:44:48;30.00;;;22.25;;
46607;SDS011;32330;51.936;7.184;2023-02-15T06:47:16;30.77;;;22.00;;
46607;SDS011;32330;51.936;7.184;2023-02-15T06:49:43;32.53;;;22.23;;
46607;SDS011;32330;51.936;7.184;2023-02-15T06:52:10;33.28;;;23.08;;
46607;SDS011;32330;51.936;7.184;2023-02-15T06:54:37;32.08;;;22.95;;
46607;SDS011;32330;51.936;7.184;2023-02-15T06:57:04;33.40;;;22.95;;
46607;SDS011;32330;51.936;7.184;2023-02-15T06:59:32;30.55;;;22.70;;
46607;SDS011;32330;51.936;7.184;2023-02-15T07:01:58;30.20;;;22.55;;
46607;SDS011;32330;51.936;7.184;2023-02-15T07:04:27;32.47;;;21.92;;
46607;SDS011;32330;51.936;7.184;2023-02-15T07:07:02;29.88;;;21.25;;
46607;SDS011;32330;51.936;7.184;2023-02-15T07:09:34;34.03;;;24.08;;
46607;SDS011;32330;51.936;7.184;2023-02-15T07:12:02;33.90;;;23.77;;
46607;SDS011;32330;51.936;7.184;2023-02-15T07:14:47;35.75;;;26.63;;
46607;SDS011;32330;51.936;7.184;2023-02-15T07:17:14;37.20;;;27.85;;
46607;SDS011;32330;51.936;7.184;2023-02-15T07:19:44;35.72;;;27.02;;
46607;SDS011;32330;51.936;7.184;2023-02-15T07:22:11;36.58;;;26.40;;
46607;SDS011;32330;51.936;7.184;2023-02-15T07:24:38;37.78;;;26.15;;
46607;SDS011;32330;51.936;7.184;2023-02-15T07:27:06;37.10;;;27.58;;
46607;SDS011;32330;51.936;7.184;2023-02-15T07:29:33;39.97;;;26.42;;
46607;SDS011;32330;51.936;7.184;2023-02-15T07:32:00;38.20;;;26.33;;
46607;SDS011;32330;51.936;7.184;2023-02-15T07:34:27;38.20;;;27.65;;
46607;SDS011;32330;51.936;7.184;2023-02-15T07:36:55;33.30;;;25.52;;
46607;SDS011;32330;51.936;7.184;2023-02-15T07:39:22;35.53;;;26.35;;
46607;SDS011;32330;51.936;7.184;2023-02-15T07:41:49;36.38;;;27.73;;
46607;SDS011;32330;51.936;7.184;2023-02-15T07:44:17;41.45;;;26.75;;
46607;SDS011;32330;51.936;7.184;2023-02-15T07:46:44;38.10;;;26.67;;
46607;SDS011;32330;51.936;7.184;2023-02-15T07:49:11;37.28;;;26.80;;
46607;SDS011;32330;51.936;7.184;2023-02-15T07:51:38;39.70;;;27.90;;
46607;SDS011;32330;51.936;7.184;2023-02-15T07:54:07;44.78;;;31.33;;
46607;SDS011;32330;51.936;7.184;2023-02-15T07:56:34;41.20;;;30.50;;
46607;SDS011;32330;51.936;7.184;2023-02-15T07:59:01;39.03;;;28.33;;
46607;SDS011;32330;51.936;7.184;2023-02-15T08:01:30;39.28;;;28.85;;
46607;SDS011;32330;51.936;7.184;2023-02-15T08:03:59;36.40;;;26.77;;
46607;SDS011;32330;51.936;7.184;2023-02-15T08:06:26;42.28;;;28.73;;
46607;SDS011;32330;51.936;7.184;2023-02-15T08:08:55;40.45;;;28.88;;
46607;SDS011;32330;51.936;7.184;2023-02-15T08:11:23;43.88;;;29.83;;
46607;SDS011;32330;51.936;7.184;2023-02-15T08:13:52;39.42;;;29.40;;
46607;SDS011;32330;51.936;7.184;2023-02-15T08:16:23;41.42;;;28.63;;
46607;SDS011;32330;51.936;7.184;2023-02-15T08:18:51;44.20;;;29.23;;
46607;SDS011;32330;51.936;7.184;2023-02-15T08:21:18;40.83;;;29.63;;
46607;SDS011;32330;51.936;7.184;2023-02-15T08:23:46;41.95;;;29.27;;
46607;SDS011;32330;51.936;7.184;2023-02-15T08:26:13;46.78;;;29.55;;
46607;SDS011;32330;51.936;7.184;2023-02-15T08:28:43;44.95;;;31.27;;
46607;SDS011;32330;51.936;7.184;2023-02-15T08:31:12;44.05;;;29.73;;
46607;SDS011;32330;51.936;7.184;2023-02-15T08:33:40;44.97;;;30.58;;
46607;SDS011;32330;51.936;7.184;2023-02-15T08:36:08;44.38;;;30.25;;
46607;SDS011;32330;51.936;7.184;2023-02-15T08:38:36;44.80;;;30.98;;
46607;SDS011;32330;51.936;7.184;2023-02-15T08:41:14;46.83;;;31.35;;
46607;SDS011;32330;51.936;7.184;2023-02-15T08:43:46;48.70;;;32.58;;
46607;SDS011;32330;51.936;7.184;2023-02-15T08:46:14;44.22;;;31.40;;
46607;SDS011;32330;51.936;7.184;2023-02-15T08:48:42;44.70;;;30.55;;
46607;SDS011;32330;51.936;7.184;2023-02-15T08:51:10;48.40;;;33.00;;
46607;SDS011;32330;51.936;7.184;2023-02-15T08:53:39;55.55;;;34.33;;
46607;SDS011;32330;51.936;7.184;2023-02-15T08:56:07;48.38;;;33.00;;
46607;SDS011;32330;51.936;7.184;2023-02-15T08:58:35;47.72;;;32.35;;
46607;SDS011;32330;51.936;7.184;2023-02-15T09:01:09;49.15;;;33.85;;
46607;SDS011;32330;51.936;7.184;2023-02-15T09:03:36;46.78;;;34.10;;
46607;SDS011;32330;51.936;7.184;2023-02-15T09:06:03;47.58;;;33.53;;
46607;SDS011;32330;51.936;7.184;2023-02-15T09:08:31;49.00;;;35.17;;
46607;SDS011;32330;51.936;7.184;2023-02-15T09:11:05;51.25;;;35.17;;
46607;SDS011;32330;51.936;7.184;2023-02-15T09:13:33;45.05;;;33.17;;
46607;SDS011;32330;51.936;7.184;2023-02-15T09:16:01;50.78;;;35.05;;
46607;SDS011;32330;51.936;7.184;2023-02-15T09:18:31;47.13;;;33.80;;
46607;SDS011;32330;51.936;7.184;2023-02-15T09:23:31;43.47;;;31.95;;
46607;SDS011;32330;51.936;7.184;2023-02-15T09:26:01;40.80;;;30.00;;
46607;SDS011;32330;51.936;7.184;2023-02-15T09:28:32;44.95;;;30.95;;
46607;SDS011;32330;51.936;7.184;2023-02-15T09:31:09;43.95;;;31.98;;
46607;SDS011;32330;51.936;7.184;2023-02-15T09:33:39;39.70;;;29.42;;
46607;SDS011;32330;51.936;7.184;2023-02-15T09:36:13;42.88;;;30.38;;
46607;SDS011;32330;51.936;7.184;2023-02-15T09:38:42;40.83;;;30.02;;
46607;SDS011;32330;51.936;7.184;2023-02-15T09:41:17;37.38;;;27.83;;
46607;SDS011;32330;51.936;7.184;2023-02-15T09:44:03;36.38;;;28.80;;
46607;SDS011;32330;51.936;7.184;2023-02-15T09:46:43;39.88;;;29.85;;
46607;SDS011;32330;51.936;7.184;2023-02-15T09:49:32;39.30;;;28.85;;
46607;SDS011;32330;51.936;7.184;2023-02-15T09:52:18;37.90;;;29.38;;
46607;SDS011;32330;51.936;7.184;2023-02-15T09:55:05;37.45;;;29.00;;
46607;SDS011;32330;51.936;7.184;2023-02-15T09:57:44;35.78;;;27.27;;
46607;SDS011;32330;51.936;7.184;2023-02-15T10:00:21;39.35;;;30.17;;
46607;SDS011;32330;51.936;7.184;2023-02-15T10:02:58;36.03;;;27.38;;
46607;SDS011;32330;51.936;7.184;2023-02-15T10:05:43;37.03;;;29.08;;
46607;SDS011;32330;51.936;7.184;2023-02-15T10:08:25;36.83;;;27.83;;
46607;SDS011;32330;51.936;7.184;2023-02-15T10:11:12;37.42;;;28.63;;
46607;SDS011;32330;51.936;7.184;2023-02-15T10:14:05;37.08;;;28.27;;
46607;SDS011;32330;51.936;7.184;2023-02-15T10:16:43;37.35;;;27.40;;
46607;SDS011;32330;51.936;7.184;2023-02-15T10:19:19;34.08;;;27.50;;
46607;SDS011;32330;51.936;7.184;2023-02-15T10:21:58;35.55;;;27.00;;
46607;SDS011;32330;51.936;7.184;2023-02-15T10:24:39;34.40;;;27.80;;
46607;SDS011;32330;51.936;7.184;2023-02-15T10:27:37;36.63;;;25.50;;
46607;SDS011;32330;51.936;7.184;2023-02-15T10:30:11;37.10;;;28.73;;
46607;SDS011;32330;51.936;7.184;2023-02-15T10:35:36;36.88;;;25.90;;
46607;SDS011;32330;51.936;7.184;2023-02-15T10:38:17;34.40;;;26.10;;
46607;SDS011;32330;51.936;7.184;2023-02-15T10:40:53;36.42;;;26.13;;
46607;SDS011;32330;51.936;7.184;2023-02-15T10:43:33;33.92;;;26.52;;
46607;SDS011;32330;51.936;7.184;2023-02-15T10:46:11;33.77;;;25.43;;
46607;SDS011;32330;51.936;7.184;2023-02-15T10:49:02;34.67;;;26.63;;
46607;SDS011;32330;51.936;7.184;2023-02-15T10:51:43;31.98;;;26.00;;
46607;SDS011;32330;51.936;7.184;2023-02-15T10:54:24;33.83;;;25.98;;
46607;SDS011;32330;51.936;7.184;2023-02-15T10:57:01;34.72;;;25.60;;
46607;SDS011;32330;51.936;7.184;2023-02-15T10:59:43;36.40;;;26.13;;
46607;SDS011;32330;51.936;7.184;2023-02-15T11:02:23;34.85;;;26.63;;
46607;SDS011;32330;51.936;7.184;2023-02-15T11:05:02;37.20;;;27.42;;
46607;SDS011;32330;51.936;7.184;2023-02-15T11:07:41;31.90;;;25.17;;
46607;SDS011;32330;51.936;7.184;2023-02-15T11:10:23;33.20;;;25.35;;
46607;SDS011;32330;51.936;7.184;2023-02-15T11:12:54;32.15;;;24.92;;
46607;SDS011;32330;51.936;7.184;2023-02-15T11:15:24;33.22;;;25.73;;
46607;SDS011;32330;51.936;7.184;2023-02-15T11:17:57;35.30;;;27.02;;
46607;SDS011;32330;51.936;7.184;2023-02-15T11:20:28;31.85;;;25.35;;
46607;SDS011;32330;51.936;7.184;2023-02-15T11:25:30;31.67;;;24.05;;
46607;SDS011;32330;51.936;7.184;2023-02-15T11:27:59;33.20;;;25.40;;
46607;SDS011;32330;51.936;7.184;2023-02-15T11:30:33;29.35;;;23.63;;
46607;SDS011;32330;51.936;7.184;2023-02-15T11:33:12;31.25;;;24.92;;
46607;SDS011;32330;51.936;7.184;2023-02-15T11:35:47;33.03;;;25.80;;
46607;SDS011;32330;51.936;7.184;2023-02-15T11:38:18;31.95;;;24.23;;
46607;SDS011;32330;51.936;7.184;2023-02-15T11:40:49;29.83;;;24.43;;
46607;SDS011;32330;51.936;7.184;2023-02-15T11:43:22;30.58;;;25.33;;
46607;SDS011;32330;51.936;7.184;2023-02-15T11:45:54;32.67;;;24.02;;
46607;SDS011;32330;51.936;7.184;2023-02-15T11:48:21;28.40;;;22.92;;
46607;SDS011;32330;51.936;7.184;2023-02-15T11:50:49;32.67;;;23.13;;
46607;SDS011;32330;51.936;7.184;2023-02-15T11:53:18;31.17;;;24.10;;
46607;SDS011;32330;51.936;7.184;2023-02-15T11:55:51;31.50;;;23.95;;
46607;SDS011;32330;51.936;7.184;2023-02-15T11:58:22;31.90;;;25.05;;
46607;SDS011;32330;51.936;7.184;2023-02-15T12:00:55;30.92;;;24.50;;
46607;SDS011;32330;51.936;7.184;2023-02-15T12:03:27;29.02;;;23.98;;
46607;SDS011;32330;51.936;7.184;2023-02-15T12:06:02;32.75;;;25.25;;
46607;SDS011;32330;51.936;7.184;2023-02-15T12:08:33;30.10;;;23.40;;
46607;SDS011;32330;51.936;7.184;2023-02-15T12:11:05;30.27;;;22.73;;
46607;SDS011;32330;51.936;7.184;2023-02-15T12:13:39;33.60;;;24.80;;
46607;SDS011;32330;51.936;7.184;2023-02-15T12:16:21;29.60;;;23.88;;
46607;SDS011;32330;51.936;7.184;2023-02-15T12:18:49;29.65;;;22.73;;
46607;SDS011;32330;51.936;7.184;2023-02-15T12:21:24;31.00;;;22.63;;
46607;SDS011;32330;51.936;7.184;2023-02-15T12:23:55;30.42;;;21.90;;
46607;SDS011;32330;51.936;7.184;2023-02-15T12:26:26;32.03;;;24.75;;
46607;SDS011;32330;51.936;7.184;2023-02-15T12:28:55;29.15;;;22.73;;
46607;SDS011;32330;51.936;7.184;2023-02-15T12:31:27;28.98;;;22.95;;
46607;SDS011;32330;51.936;7.184;2023-02-15T12:33:59;29.00;;;22.30;;
46607;SDS011;32330;51.936;7.184;2023-02-15T12:36:29;31.70;;;23.00;;
46607;SDS011;32330;51.936;7.184;2023-02-15T12:39:09;32.63;;;24.17;;
46607;SDS011;32330;51.936;7.184;2023-02-15T12:41:46;32.60;;;24.55;;
46607;SDS011;32330;51.936;7.184;2023-02-15T12:44:24;30.60;;;23.85;;
46607;SDS011;32330;51.936;7.184;2023-02-15T12:46:58;28.48;;;22.42;;
46607;SDS011;32330;51.936;7.184;2023-02-15T12:49:27;28.42;;;21.90;;
46607;SDS011;32330;51.936;7.184;2023-02-15T12:51:56;30.08;;;23.17;;
46607;SDS011;32330;51.936;7.184;2023-02-15T12:54:34;30.08;;;22.83;;
46607;SDS011;32330;51.936;7.184;2023-02-15T12:57:25;29.17;;;22.83;;
46607;SDS011;32330;51.936;7.184;2023-02-15T12:59:54;27.05;;;19.80;;
46607;SDS011;32330;51.936;7.184;2023-02-15T13:02:26;29.90;;;21.05;;
46607;SDS011;32330;51.936;7.184;2023-02-15T13:04:55;26.67;;;19.70;;
46607;SDS011;32330;51.936;7.184;2023-02-15T13:07:24;26.23;;;18.40;;
46607;SDS011;32330;51.936;7.184;2023-02-15T13:09:57;24.83;;;19.48;;
46607;SDS011;32330;51.936;7.184;2023-02-15T13:12:26;29.00;;;19.33;;
46607;SDS011;32330;51.936;7.184;2023-02-15T13:14:56;27.35;;;18.80;;
46607;SDS011;32330;51.936;7.184;2023-02-15T13:17:25;24.40;;;17.90;;
46607;SDS011;32330;51.936;7.184;2023-02-15T13:19:55;26.50;;;18.80;;
46607;SDS011;32330;51.936;7.184;2023-02-15T13:22:28;25.40;;;18.75;;
46607;SDS011;32330;51.936;7.184;2023-02-15T13:25:01;25.60;;;19.17;;
46607;SDS011;32330;51.936;7.184;2023-02-15T13:27:34;22.80;;;17.55;;
46607;SDS011;32330;51.936;7.184;2023-02-15T13:32:37;21.67;;;17.45;;
46607;SDS011;32330;51.936;7.184;2023-02-15T13:35:10;23.42;;;17.63;;
46607;SDS011;32330;51.936;7.184;2023-02-15T13:40:45;22.15;;;16.52;;
46607;SDS011;32330;51.936;7.184;2023-02-15T13:43:23;25.08;;;18.08;;
46607;SDS011;32330;51.936;7.184;2023-02-15T13:46:03;22.23;;;16.40;;
46607;SDS011;32330;51.936;7.184;2023-02-15T13:48:41;21.85;;;15.77;;
46607;SDS011;32330;51.936;7.184;2023-02-15T13:51:17;25.48;;;16.95;;
46607;SDS011;32330;51.936;7.184;2023-02-15T13:59:47;21.08;;;15.20;;
46607;SDS011;32330;51.936;7.184;2023-02-15T14:05:03;19.40;;;14.52;;
46607;SDS011;32330;51.936;7.184;2023-02-15T14:07:46;20.20;;;14.90;;
46607;SDS011;32330;51.936;7.184;2023-02-15T14:10:22;19.35;;;14.18;;
46607;SDS011;32330;51.936;7.184;2023-02-15T14:15:44;19.55;;;13.23;;
46607;SDS011;32330;51.936;7.184;2023-02-15T14:18:36;22.33;;;13.55;;
46607;SDS011;32330;51.936;7.184;2023-02-15T14:21:13;23.38;;;13.85;;
46607;SDS011;32330;51.936;7.184;2023-02-15T14:23:48;20.13;;;14.07;;
46607;SDS011;32330;51.936;7.184;2023-02-15T14:26:30;19.83;;;13.68;;
46607;SDS011;32330;51.936;7.184;2023-02-15T14:29:06;19.58;;;13.20;;
46607;SDS011;32330;51.936;7.184;2023-02-15T14:31:43;19.38;;;13.63;;
46607;SDS011;32330;51.936;7.184;2023-02-15T14:34:18;18.50;;;13.10;;
46607;SDS011;32330;51.936;7.184;2023-02-15T14:36:48;19.50;;;13.65;;
46607;SDS011;32330;51.936;7.184;2023-02-15T14:39:18;23.20;;;13.95;;
46607;SDS011;32330;51.936;7.184;2023-02-15T14:42:13;19.98;;;12.82;;
46607;SDS011;32330;51.936;7.184;2023-02-15T14:44:45;21.08;;;13.50;;
46607;SDS011;32330;51.936;7.184;2023-02-15T14:47:18;20.15;;;13.63;;
46607;SDS011;32330;51.936;7.184;2023-02-15T14:49:52;19.70;;;13.25;;
46607;SDS011;32330;51.936;7.184;2023-02-15T14:52:19;19.88;;;13.07;;
46607;SDS011;32330;51.936;7.184;2023-02-15T14:54:53;23.52;;;14.52;;
46607;SDS011;32330;51.936;7.184;2023-02-15T14:57:23;20.20;;;13.45;;
46607;SDS011;32330;51.936;7.184;2023-02-15T14:59:57;21.13;;;14.43;;
46607;SDS011;32330;51.936;7.184;2023-02-15T15:02:39;24.73;;;15.20;;
46607;SDS011;32330;51.936;7.184;2023-02-15T15:05:10;22.40;;;14.32;;
46607;SDS011;32330;51.936;7.184;2023-02-15T15:07:45;18.85;;;13.35;;
46607;SDS011;32330;51.936;7.184;2023-02-15T15:13:34;23.67;;;16.90;;
46607;SDS011;32330;51.936;7.184;2023-02-15T15:18:52;25.35;;;17.35;;
46607;SDS011;32330;51.936;7.184;2023-02-15T15:36:49;23.23;;;14.88;;
46607;SDS011;32330;51.936;7.184;2023-02-15T15:39:47;24.70;;;15.02;;
46607;SDS011;32330;51.936;7.184;2023-02-15T15:42:32;25.70;;;16.13;;
46607;SDS011;32330;51.936;7.184;2023-02-15T15:48:10;30.45;;;14.07;;
46607;SDS011;32330;51.936;7.184;2023-02-15T15:50:51;25.08;;;15.60;;
46607;SDS011;32330;51.936;7.184;2023-02-15T15:53:21;26.02;;;15.23;;
46607;SDS011;32330;51.936;7.184;2023-02-15T15:55:50;23.48;;;15.35;;
46607;SDS011;32330;51.936;7.184;2023-02-15T15:58:21;23.58;;;14.52;;
46607;SDS011;32330;51.936;7.184;2023-02-15T16:00:50;23.05;;;14.82;;
46607;SDS011;32330;51.936;7.184;2023-02-15T16:03:21;23.80;;;15.33;;
46607;SDS011;32330;51.936;7.184;2023-02-15T16:05:51;23.17;;;15.88;;
46607;SDS011;32330;51.936;7.184;2023-02-15T16:08:27;26.02;;;16.73;;
46607;SDS011;32330;51.936;7.184;2023-02-15T16:10:56;27.98;;;19.35;;
46607;SDS011;32330;51.936;7.184;2023-02-15T16:13:24;30.65;;;18.40;;
46607;SDS011;32330;51.936;7.184;2023-02-15T16:15:52;25.42;;;16.65;;
46607;SDS011;32330;51.936;7.184;2023-02-15T16:18:22;25.77;;;18.52;;
46607;SDS011;32330;51.936;7.184;2023-02-15T16:20:54;26.83;;;18.00;;
46607;SDS011;32330;51.936;7.184;2023-02-15T16:23:31;31.60;;;19.73;;
46607;SDS011;32330;51.936;7.184;2023-02-15T16:26:25;34.45;;;21.13;;
46607;SDS011;32330;51.936;7.184;2023-02-15T16:29:16;35.42;;;23.85;;
46607;SDS011;32330;51.936;7.184;2023-02-15T16:31:47;36.88;;;25.08;;
46607;SDS011;32330;51.936;7.184;2023-02-15T16:34:25;37.15;;;23.25;;
46607;SDS011;32330;51.936;7.184;2023-02-15T16:39:40;31.08;;;21.13;;
46607;SDS011;32330;51.936;7.184;2023-02-15T16:42:08;32.90;;;20.67;;
46607;SDS011;32330;51.936;7.184;2023-02-15T16:44:36;32.55;;;21.63;;
46607;SDS011;32330;51.936;7.184;2023-02-15T16:47:04;30.98;;;21.38;;
46607;SDS011;32330;51.936;7.184;2023-02-15T16:49:38;29.40;;;20.05;;
46607;SDS011;32330;51.936;7.184;2023-02-15T16:52:12;28.85;;;20.67;;
46607;SDS011;32330;51.936;7.184;2023-02-15T16:54:45;36.33;;;21.88;;
46607;SDS011;32330;51.936;7.184;2023-02-15T16:57:15;36.10;;;23.20;;
46607;SDS011;32330;51.936;7.184;2023-02-15T16:59:47;33.45;;;19.58;;
46607;SDS011;32330;51.936;7.184;2023-02-15T17:02:17;29.23;;;19.90;;
46607;SDS011;32330;51.936;7.184;2023-02-15T17:04:49;30.45;;;20.20;;
46607;SDS011;32330;51.936;7.184;2023-02-15T17:07:34;26.98;;;18.98;;
46607;SDS011;32330;51.936;7.184;2023-02-15T17:10:25;28.00;;;18.42;;
46607;SDS011;32330;51.936;7.184;2023-02-15T17:12:54;29.42;;;19.13;;
46607;SDS011;32330;51.936;7.184;2023-02-15T17:15:30;29.75;;;19.50;;
46607;SDS011;32330;51.936;7.184;2023-02-15T17:18:00;37.88;;;26.02;;
46607;SDS011;32330;51.936;7.184;2023-02-15T17:20:29;34.85;;;24.88;;
46607;SDS011;32330;51.936;7.184;2023-02-15T17:22:58;31.25;;;23.65;;
46607;SDS011;32330;51.936;7.184;2023-02-15T17:25:29;35.17;;;23.15;;
46607;SDS011;32330;51.936;7.184;2023-02-15T17:28:01;30.25;;;20.73;;
46607;SDS011;32330;51.936;7.184;2023-02-15T17:30:29;31.25;;;20.98;;
46607;SDS011;32330;51.936;7.184;2023-02-15T17:32:59;28.27;;;20.75;;
46607;SDS011;32330;51.936;7.184;2023-02-15T17:35:27;30.75;;;20.00;;
46607;SDS011;32330;51.936;7.184;2023-02-15T17:38:04;29.65;;;18.42;;
46607;SDS011;32330;51.936;7.184;2023-02-15T17:40:33;28.15;;;18.27;;
46607;SDS011;32330;51.936;7.184;2023-02-15T17:43:01;27.20;;;17.40;;
46607;SDS011;32330;51.936;7.184;2023-02-15T17:45:31;27.20;;;18.52;;
46607;SDS011;32330;51.936;7.184;2023-02-15T17:48:01;26.95;;;19.70;;
46607;SDS011;32330;51.936;7.184;2023-02-15T17:50:29;27.13;;;17.52;;
46607;SDS011;32330;51.936;7.184;2023-02-15T17:52:57;26.42;;;18.33;;
46607;SDS011;32330;51.936;7.184;2023-02-15T17:55:28;29.92;;;18.85;;
46607;SDS011;32330;51.936;7.184;2023-02-15T17:58:01;32.55;;;21.63;;
46607;SDS011;32330;51.936;7.184;2023-02-15T18:00:29;32.53;;;20.73;;
46607;SDS011;32330;51.936;7.184;2023-02-15T18:03:15;33.30;;;21.92;;
46607;SDS011;32330;51.936;7.184;2023-02-15T18:06:00;28.63;;;19.40;;
46607;SDS011;32330;51.936;7.184;2023-02-15T18:08:45;28.65;;;20.52;;
46607;SDS011;32330;51.936;7.184;2023-02-15T18:11:31;29.42;;;20.10;;
46607;SDS011;32330;51.936;7.184;2023-02-15T18:14:02;30.10;;;19.55;;
46607;SDS011;32330;51.936;7.184;2023-02-15T18:16:32;28.83;;;18.55;;
46607;SDS011;32330;51.936;7.184;2023-02-15T18:19:01;32.57;;;18.43;;
46607;SDS011;32330;51.936;7.184;2023-02-15T18:21:29;28.02;;;18.25;;
46607;SDS011;32330;51.936;7.184;2023-02-15T18:23:56;25.70;;;17.50;;
46607;SDS011;32330;51.936;7.184;2023-02-15T18:26:25;30.48;;;18.30;;
46607;SDS011;32330;51.936;7.184;2023-02-15T18:28:54;27.08;;;17.58;;
46607;SDS011;32330;51.936;7.184;2023-02-15T18:31:21;38.15;;;19.38;;
46607;SDS011;32330;51.936;7.184;2023-02-15T18:33:49;24.98;;;17.02;;
46607;SDS011;32330;51.936;7.184;2023-02-15T18:36:20;24.92;;;17.25;;
46607;SDS011;32330;51.936;7.184;2023-02-15T18:38:49;29.42;;;18.63;;
46607;SDS011;32330;51.936;7.184;2023-02-15T18:41:18;29.40;;;18.88;;
46607;SDS011;32330;51.936;7.184;2023-02-15T18:43:46;33.70;;;20.00;;
46607;SDS011;32330;51.936;7.184;2023-02-15T18:46:16;30.55;;;20.55;;
46607;SDS011;32330;51.936;7.184;2023-02-15T18:48:43;28.42;;;19.58;;
46607;SDS011;32330;51.936;7.184;2023-02-15T18:51:13;29.65;;;19.08;;
46607;SDS011;32330;51.936;7.184;2023-02-15T18:53:43;26.60;;;17.73;;
46607;SDS011;32330;51.936;7.184;2023-02-15T18:56:12;22.23;;;16.02;;
46607;SDS011;32330;51.936;7.184;2023-02-15T18:58:41;31.27;;;16.05;;
46607;SDS011;32330;51.936;7.184;2023-02-15T19:01:11;22.77;;;16.35;;
46607;SDS011;32330;51.936;7.184;2023-02-15T19:03:43;26.90;;;15.57;;
46607;SDS011;32330;51.936;7.184;2023-02-15T19:06:12;26.90;;;16.93;;
46607;SDS011;32330;51.936;7.184;2023-02-15T19:08:45;27.05;;;16.73;;
46607;SDS011;32330;51.936;7.184;2023-02-15T19:11:15;23.90;;;16.52;;
46607;SDS011;32330;51.936;7.184;2023-02-15T19:13:44;22.83;;;14.75;;
46607;SDS011;32330;51.936;7.184;2023-02-15T19:16:20;26.05;;;15.95;;
46607;SDS011;32330;51.936;7.184;2023-02-15T19:18:56;20.95;;;14.88;;
46607;SDS011;32330;51.936;7.184;2023-02-15T19:21:24;22.92;;;15.45;;
46607;SDS011;32330;51.936;7.184;2023-02-15T19:23:53;28.77;;;15.73;;
46607;SDS011;32330;51.936;7.184;2023-02-15T19:26:22;20.67;;;15.05;;
46607;SDS011;32330;51.936;7.184;2023-02-15T19:28:50;25.45;;;15.85;;
46607;SDS011;32330;51.936;7.184;2023-02-15T19:31:20;27.30;;;15.60;;
46607;SDS011;32330;51.936;7.184;2023-02-15T19:33:47;23.30;;;15.20;;
46607;SDS011;32330;51.936;7.184;2023-02-15T19:36:16;25.02;;;16.58;;
46607;SDS011;32330;51.936;7.184;2023-02-15T19:38:46;23.63;;;15.15;;
46607;SDS011;32330;51.936;7.184;2023-02-15T19:41:15;24.30;;;15.70;;
46607;SDS011;32330;51.936;7.184;2023-02-15T19:43:49;21.92;;;15.25;;
46607;SDS011;32330;51.936;7.184;2023-02-15T19:46:19;25.27;;;15.65;;
46607;SDS011;32330;51.936;7.184;2023-02-15T19:48:47;23.70;;;15.95;;
46607;SDS011;32330;51.936;7.184;2023-02-15T19:51:16;26.27;;;14.98;;
46607;SDS011;32330;51.936;7.184;2023-02-15T19:53:44;22.13;;;15.38;;
46607;SDS011;32330;51.936;7.184;2023-02-15T19:56:13;25.65;;;17.60;;
46607;SDS011;32330;51.936;7.184;2023-02-15T19:58:43;20.65;;;15.07;;
46607;SDS011;32330;51.936;7.184;2023-02-15T20:01:10;21.63;;;16.40;;
46607;SDS011;32330;51.936;7.184;2023-02-15T20:03:37;24.27;;;16.65;;
46607;SDS011;32330;51.936;7.184;2023-02-15T20:06:04;23.98;;;17.27;;
46607;SDS011;32330;51.936;7.184;2023-02-15T20:08:33;23.80;;;15.63;;
46607;SDS011;32330;51.936;7.184;2023-02-15T20:11:00;23.75;;;15.57;;
46607;SDS011;32330;51.936;7.184;2023-02-15T20:13:27;21.58;;;14.73;;
46607;SDS011;32330;51.936;7.184;2023-02-15T20:15:54;19.98;;;15.15;;
46607;SDS011;32330;51.936;7.184;2023-02-15T20:18:21;19.40;;;14.77;;
46607;SDS011;32330;51.936;7.184;2023-02-15T20:20:48;19.80;;;14.48;;
46607;SDS011;32330;51.936;7.184;2023-02-15T20:23:17;22.35;;;14.98;;
46607;SDS011;32330;51.936;7.184;2023-02-15T20:25:48;21.95;;;15.05;;
46607;SDS011;32330;51.936;7.184;2023-02-15T20:28:16;28.38;;;17.60;;